createdAt,value
2018-10-06T00:01:29.634Z,10.30
2018-10-06T00:03:58.125Z,10.30
2018-10-06T00:06:26.644Z,10.30
2018-10-06T00:08:55.150Z,10.40
2018-10-06T00:11:23.700Z,10.30
2018-10-06T00:13:52.197Z,10.30
2018-10-06T00:16:20.738Z,10.30
2018-10-06T00:18:49.244Z,10.30
2018-10-06T00:21:17.842Z,10.30
2018-10-06T00:23:46.349Z,10.10
2018-10-06T00:26:14.882Z,10.20
2018-10-06T00:28:43.387Z,10.10
2018-10-06T00:31:11.966Z,10.10
2018-10-06T00:33:40.465Z,10.10
2018-10-06T00:36:08.985Z,10.10
2018-10-06T00:38:37.493Z,10.00
2018-10-06T00:41:06.317Z,10.00
2018-10-06T00:43:34.818Z,10.10
2018-10-06T00:46:03.353Z,10.00
2018-10-06T00:48:31.858Z,10.00
2018-10-06T00:51:00.374Z,10.10
2018-10-06T00:53:28.905Z,10.10
2018-10-06T00:55:57.392Z,10.00
2018-10-06T00:58:25.925Z,10.00
2018-10-06T01:00:54.438Z,10.00
2018-10-06T01:03:22.962Z,10.00
2018-10-06T01:05:51.468Z,10.00
2018-10-06T01:08:19.998Z,9.90
2018-10-06T01:10:48.508Z,9.80
2018-10-06T01:13:17.030Z,9.70
2018-10-06T01:15:45.750Z,9.70
2018-10-06T01:18:14.301Z,9.80
2018-10-06T01:20:42.795Z,9.80
2018-10-06T01:23:11.376Z,9.80
2018-10-06T01:25:39.868Z,9.70
2018-10-06T01:28:08.425Z,9.80
2018-10-06T01:30:36.953Z,9.80
2018-10-06T01:33:05.497Z,9.70
2018-10-06T01:35:34.271Z,9.80
2018-10-06T01:38:02.827Z,9.80
2018-10-06T01:40:31.455Z,9.80
2018-10-06T01:42:59.996Z,9.60
2018-10-06T01:45:28.519Z,9.50
2018-10-06T01:47:57.072Z,9.50
2018-10-06T01:50:25.601Z,9.60
2018-10-06T01:52:54.170Z,9.60
2018-10-06T01:55:22.668Z,9.50
2018-10-06T01:57:51.217Z,9.40
2018-10-06T02:00:19.748Z,9.50
2018-10-06T02:02:48.297Z,9.50
2018-10-06T02:05:16.840Z,9.50
2018-10-06T02:07:45.397Z,9.40
2018-10-06T02:10:13.922Z,9.40
2018-10-06T02:12:42.463Z,9.40
2018-10-06T02:15:10.979Z,9.40
2018-10-06T02:17:39.554Z,9.40
2018-10-06T02:20:08.124Z,9.40
2018-10-06T02:22:36.833Z,9.40
2018-10-06T02:25:06.101Z,9.40
2018-10-06T02:27:34.645Z,9.40
2018-10-06T02:30:03.180Z,9.40
2018-10-06T02:32:31.718Z,9.30
2018-10-06T02:35:00.202Z,9.30
2018-10-06T02:37:29.130Z,9.20
2018-10-06T02:39:57.637Z,9.20
2018-10-06T02:42:26.210Z,9.10
2018-10-06T02:44:54.734Z,9.20
2018-10-06T02:47:23.260Z,9.20
2018-10-06T02:49:51.775Z,9.20
2018-10-06T02:52:20.262Z,9.20
2018-10-06T02:54:48.841Z,9.20
2018-10-06T02:57:17.329Z,9.20
2018-10-06T02:59:45.842Z,9.20
2018-10-06T03:02:14.328Z,9.20
2018-10-06T03:04:42.882Z,9.20
2018-10-06T03:07:11.381Z,9.20
2018-10-06T03:09:39.902Z,9.10
2018-10-06T03:12:08.393Z,9.10
2018-10-06T03:14:36.936Z,9.20
2018-10-06T03:17:05.670Z,9.10
2018-10-06T03:19:34.205Z,9.00
2018-10-06T03:22:02.750Z,9.10
2018-10-06T03:24:31.286Z,9.10
2018-10-06T03:26:59.790Z,9.10
2018-10-06T03:29:28.309Z,9.00
2018-10-06T03:31:56.810Z,9.00
2018-10-06T03:34:25.341Z,9.00
2018-10-06T03:36:53.861Z,9.00
2018-10-06T03:39:22.369Z,9.00
2018-10-06T03:41:50.857Z,9.10
2018-10-06T03:44:19.397Z,9.10
2018-10-06T03:46:47.933Z,9.10
2018-10-06T03:49:16.454Z,9.00
2018-10-06T03:51:44.960Z,9.00
2018-10-06T03:54:13.570Z,8.90
2018-10-06T03:56:43.425Z,9.00
2018-10-06T03:59:12.504Z,9.00
2018-10-06T04:01:41.021Z,9.00
2018-10-06T04:04:09.534Z,9.00
2018-10-06T04:06:38.038Z,9.10
2018-10-06T04:09:08.614Z,9.00
2018-10-06T04:11:37.613Z,9.00
2018-10-06T04:14:06.621Z,9.00
2018-10-06T04:16:35.121Z,8.90
2018-10-06T04:19:03.626Z,8.90
2018-10-06T04:21:47.750Z,9.00
2018-10-06T04:24:17.648Z,9.00
2018-10-06T04:26:47.128Z,9.00
2018-10-06T04:29:15.683Z,9.00
2018-10-06T04:31:44.205Z,9.00
2018-10-06T04:34:12.762Z,8.90
2018-10-06T04:36:41.253Z,8.80
2018-10-06T04:39:11.406Z,8.90
2018-10-06T04:41:39.900Z,8.80
2018-10-06T04:44:08.842Z,8.70
2018-10-06T04:46:37.335Z,8.80
2018-10-06T04:49:05.978Z,8.80
2018-10-06T04:51:34.493Z,8.80
2018-10-06T04:54:03.013Z,8.80
2018-10-06T04:56:31.539Z,8.80
2018-10-06T04:59:00.057Z,8.80
2018-10-06T05:01:28.569Z,8.80
2018-10-06T05:03:57.067Z,8.80
2018-10-06T05:06:25.609Z,8.80
2018-10-06T05:08:54.104Z,8.80
2018-10-06T05:11:22.651Z,8.80
2018-10-06T05:13:51.151Z,8.70
2018-10-06T05:16:19.677Z,8.70
2018-10-06T05:18:48.169Z,8.60
2018-10-06T05:21:16.760Z,8.70
2018-10-06T05:23:45.365Z,8.60
2018-10-06T05:26:13.865Z,8.60
2018-10-06T05:28:42.388Z,8.60
2018-10-06T05:31:10.951Z,8.60
2018-10-06T05:33:39.466Z,8.50
2018-10-06T05:36:08.012Z,8.60
2018-10-06T05:38:36.536Z,8.50
2018-10-06T05:41:05.397Z,8.50
2018-10-06T05:43:33.931Z,8.50
2018-10-06T05:46:02.485Z,8.60
2018-10-06T05:48:31.010Z,8.60
2018-10-06T05:50:59.558Z,8.60
2018-10-06T05:53:28.073Z,8.60
2018-10-06T05:55:56.623Z,8.70
2018-10-06T05:58:25.158Z,8.60
2018-10-06T06:00:53.719Z,8.60
2018-10-06T06:03:22.266Z,8.70
2018-10-06T06:05:50.818Z,8.70
2018-10-06T06:08:19.341Z,8.70
2018-10-06T06:10:47.889Z,8.80
2018-10-06T06:13:16.417Z,8.80
2018-10-06T06:15:45.033Z,8.80
2018-10-06T06:18:13.516Z,8.80
2018-10-06T06:20:42.074Z,8.80
2018-10-06T06:23:10.595Z,8.90
2018-10-06T06:25:39.129Z,8.80
2018-10-06T06:28:07.626Z,9.00
2018-10-06T06:30:36.158Z,9.10
2018-10-06T06:33:04.690Z,9.10
2018-10-06T06:35:33.189Z,9.20
2018-10-06T06:38:01.713Z,9.20
2018-10-06T06:40:30.205Z,9.30
2018-10-06T06:42:58.782Z,9.40
2018-10-06T06:45:27.282Z,9.40
2018-10-06T06:47:55.829Z,9.40
2018-10-06T06:50:24.334Z,9.60
2018-10-06T06:52:53.893Z,9.70
2018-10-06T06:55:22.423Z,9.80
2018-10-06T06:57:50.935Z,9.90
2018-10-06T07:00:19.433Z,10.00
2018-10-06T07:02:48.017Z,10.10
2018-10-06T07:05:20.710Z,10.20
2018-10-06T07:07:49.237Z,10.30
2018-10-06T07:10:17.750Z,10.30
2018-10-06T07:12:46.419Z,10.50
2018-10-06T07:15:14.977Z,10.60
2018-10-06T07:17:43.493Z,10.60
2018-10-06T07:20:12.027Z,10.80
2018-10-06T07:22:40.597Z,10.80
2018-10-06T07:25:09.208Z,11.00
2018-10-06T07:27:37.741Z,11.00
2018-10-06T07:30:06.589Z,11.20
2018-10-06T07:32:35.168Z,11.20
2018-10-06T07:35:03.725Z,11.40
2018-10-06T07:37:32.351Z,11.50
2018-10-06T07:40:00.865Z,11.40
2018-10-06T07:42:29.403Z,11.40
2018-10-06T07:44:58.088Z,11.50
2018-10-06T07:47:27.163Z,11.60
2018-10-06T07:49:55.676Z,11.60
2018-10-06T07:52:24.297Z,11.60
2018-10-06T07:54:52.804Z,11.60
2018-10-06T07:57:21.332Z,11.70
2018-10-06T07:59:49.842Z,12.00
2018-10-06T08:02:18.389Z,11.90
2018-10-06T08:04:46.902Z,12.20
2018-10-06T08:07:15.425Z,12.30
2018-10-06T08:09:43.921Z,12.10
2018-10-06T08:12:12.518Z,12.10
2018-10-06T08:14:41.028Z,12.10
2018-10-06T08:17:09.557Z,12.20
2018-10-06T08:19:38.097Z,12.20
2018-10-06T08:22:06.685Z,12.30
2018-10-06T08:24:35.307Z,12.30
2018-10-06T08:27:03.862Z,12.40
2018-10-06T08:29:32.416Z,12.50
2018-10-06T08:32:00.975Z,12.60
2018-10-06T08:34:29.543Z,12.70
2018-10-06T08:36:58.076Z,12.90
2018-10-06T08:39:26.633Z,13.00
2018-10-06T08:41:55.176Z,13.20
2018-10-06T08:44:23.741Z,13.30
2018-10-06T08:46:52.294Z,13.40
2018-10-06T08:49:20.856Z,13.50
2018-10-06T08:51:49.376Z,13.80
2018-10-06T08:54:17.926Z,14.10
2018-10-06T08:56:46.461Z,14.00
2018-10-06T08:59:15.026Z,14.20
2018-10-06T09:01:43.552Z,14.40
2018-10-06T09:04:12.139Z,14.60
2018-10-06T09:06:40.636Z,14.90
2018-10-06T09:09:09.889Z,14.90
2018-10-06T09:11:38.455Z,15.20
2018-10-06T09:14:07.998Z,15.10
2018-10-06T09:16:36.538Z,15.20
2018-10-06T09:19:05.157Z,15.30
2018-10-06T09:21:33.677Z,15.40
2018-10-06T09:24:02.205Z,15.60
2018-10-06T09:26:30.734Z,16.10
2018-10-06T09:28:59.260Z,16.30
2018-10-06T09:31:27.748Z,16.60
2018-10-06T09:33:56.269Z,16.80
2018-10-06T09:36:25.109Z,17.10
2018-10-06T09:38:53.641Z,17.20
2018-10-06T09:41:22.125Z,17.30
2018-10-06T09:43:50.670Z,17.60
2018-10-06T09:46:19.182Z,17.80
2018-10-06T09:48:47.745Z,17.90
2018-10-06T09:51:16.312Z,18.20
2018-10-06T09:53:44.850Z,18.20
2018-10-06T09:56:13.368Z,18.30
2018-10-06T09:58:41.874Z,18.30
2018-10-06T10:01:15.866Z,18.50
2018-10-06T10:03:49.686Z,18.50
2018-10-06T10:06:18.269Z,18.40
2018-10-06T10:08:46.757Z,18.50
2018-10-06T10:11:15.303Z,18.50
2018-10-06T10:13:43.813Z,18.60
2018-10-06T10:16:12.333Z,18.60
2018-10-06T10:18:40.839Z,18.60
2018-10-06T10:21:09.404Z,18.70
2018-10-06T10:23:37.991Z,18.80
2018-10-06T10:26:06.653Z,18.90
2018-10-06T10:28:35.184Z,19.10
2018-10-06T10:31:03.770Z,19.30
2018-10-06T10:33:32.321Z,19.20
2018-10-06T10:36:00.876Z,19.40
2018-10-06T10:38:29.453Z,19.40
2018-10-06T10:40:58.031Z,19.50
2018-10-06T10:43:27.022Z,19.40
2018-10-06T10:45:55.625Z,19.50
2018-10-06T10:48:24.238Z,19.50
2018-10-06T10:50:52.883Z,19.50
2018-10-06T10:53:21.294Z,19.50
2018-10-06T10:55:49.848Z,19.50
2018-10-06T10:58:18.381Z,19.70
2018-10-06T11:00:46.942Z,19.70
2018-10-06T11:03:15.475Z,19.80
2018-10-06T11:05:44.169Z,19.80
2018-10-06T11:08:12.696Z,20.10
2018-10-06T11:10:41.258Z,20.10
2018-10-06T11:13:09.949Z,20.20
2018-10-06T11:15:38.560Z,20.30
2018-10-06T11:18:07.129Z,20.40
2018-10-06T11:20:35.698Z,20.40
2018-10-06T11:23:04.269Z,20.40
2018-10-06T11:25:32.848Z,20.60
2018-10-06T11:28:01.388Z,20.70
2018-10-06T11:30:29.933Z,20.80
2018-10-06T11:32:58.475Z,20.90
2018-10-06T11:35:27.033Z,21.00
2018-10-06T11:37:55.693Z,20.90
2018-10-06T11:40:24.277Z,21.00
2018-10-06T11:42:52.810Z,21.00
2018-10-06T11:45:21.358Z,20.90
2018-10-06T11:47:49.889Z,20.90
2018-10-06T11:50:18.576Z,20.90
2018-10-06T11:52:47.070Z,20.90
2018-10-06T11:55:15.838Z,21.00
2018-10-06T11:57:44.420Z,21.00
2018-10-06T12:00:13.100Z,21.00
2018-10-06T12:02:41.514Z,21.10
2018-10-06T12:05:10.058Z,21.20
2018-10-06T12:07:39.033Z,21.10
2018-10-06T12:10:08.327Z,21.10
2018-10-06T12:12:37.013Z,21.20
2018-10-06T12:15:05.838Z,21.20
2018-10-06T12:17:34.413Z,21.10
2018-10-06T12:20:03.069Z,21.30
2018-10-06T12:22:31.647Z,21.20
2018-10-06T12:25:00.170Z,21.20
2018-10-06T12:27:28.743Z,21.20
2018-10-06T12:29:57.404Z,21.20
2018-10-06T12:32:25.949Z,21.20
2018-10-06T12:34:54.711Z,21.20
2018-10-06T12:37:23.138Z,21.20
2018-10-06T12:39:51.669Z,21.00
2018-10-06T12:42:20.292Z,20.90
2018-10-06T12:44:48.784Z,20.90
2018-10-06T12:47:17.354Z,20.70
2018-10-06T12:49:45.897Z,20.70
2018-10-06T12:52:14.459Z,20.70
2018-10-06T12:54:43.006Z,20.80
2018-10-06T12:57:11.574Z,20.90
2018-10-06T12:59:40.114Z,21.00
2018-10-06T13:02:08.697Z,21.10
2018-10-06T13:04:37.573Z,21.10
2018-10-06T13:07:06.166Z,21.20
2018-10-06T13:09:34.685Z,21.20
2018-10-06T13:12:03.310Z,21.20
2018-10-06T13:14:31.797Z,21.20
2018-10-06T13:17:00.374Z,21.20
2018-10-06T13:19:29.096Z,21.10
2018-10-06T13:21:57.635Z,21.10
2018-10-06T13:24:26.266Z,21.20
2018-10-06T13:26:54.800Z,21.10
2018-10-06T13:29:23.301Z,21.00
2018-10-06T13:31:51.867Z,21.00
2018-10-06T13:34:20.340Z,21.00
2018-10-06T13:36:49.404Z,21.00
2018-10-06T13:39:17.897Z,21.30
2018-10-06T13:41:46.412Z,21.30
2018-10-06T13:44:14.954Z,21.10
2018-10-06T13:46:43.571Z,21.30
2018-10-06T13:49:12.050Z,21.40
2018-10-06T13:51:40.560Z,21.40
2018-10-06T13:54:09.151Z,21.40
2018-10-06T13:56:37.698Z,21.50
2018-10-06T13:59:06.253Z,21.40
2018-10-06T14:01:34.774Z,21.30
2018-10-06T14:04:03.932Z,21.30
2018-10-06T14:06:32.450Z,21.40
2018-10-06T14:09:08.065Z,21.20
2018-10-06T14:11:36.883Z,21.20
2018-10-06T14:14:05.494Z,21.30
2018-10-06T14:16:34.211Z,21.30
2018-10-06T14:19:02.740Z,21.30
2018-10-06T14:21:31.289Z,21.40
2018-10-06T14:23:59.850Z,21.30
2018-10-06T14:26:28.399Z,21.30
2018-10-06T14:28:56.958Z,21.30
2018-10-06T14:31:25.494Z,21.30
2018-10-06T14:33:54.070Z,21.20
2018-10-06T14:36:22.759Z,21.10
2018-10-06T14:38:51.333Z,20.90
2018-10-06T14:41:20.417Z,20.90
2018-10-06T14:43:48.978Z,20.80
2018-10-06T14:46:17.518Z,20.80
2018-10-06T14:48:46.078Z,20.70
2018-10-06T14:51:14.617Z,20.90
2018-10-06T14:53:43.165Z,20.90
2018-10-06T14:56:11.685Z,20.80
2018-10-06T14:58:40.269Z,20.80
2018-10-06T15:01:09.170Z,20.80
2018-10-06T15:03:37.768Z,20.80
2018-10-06T15:06:06.308Z,20.70
2018-10-06T15:08:34.982Z,20.70
2018-10-06T15:11:03.520Z,20.70
2018-10-06T15:13:32.090Z,20.90
2018-10-06T15:16:00.607Z,20.80
2018-10-06T15:18:29.114Z,20.70
2018-10-06T15:20:58.178Z,20.60
2018-10-06T15:23:26.736Z,20.60
2018-10-06T15:25:55.303Z,20.60
2018-10-06T15:28:23.825Z,20.50
2018-10-06T15:30:52.336Z,20.40
2018-10-06T15:33:20.837Z,20.40
2018-10-06T15:35:49.375Z,20.30
2018-10-06T15:38:17.909Z,20.30
2018-10-06T15:40:46.437Z,20.30
2018-10-06T15:43:14.935Z,20.20
2018-10-06T15:45:43.436Z,20.10
2018-10-06T15:48:11.933Z,20.00
2018-10-06T15:50:40.445Z,20.00
2018-10-06T15:53:09.015Z,20.00
2018-10-06T15:55:37.529Z,19.90
2018-10-06T15:58:06.046Z,19.90
2018-10-06T16:00:34.781Z,19.80
2018-10-06T16:03:03.370Z,19.70
2018-10-06T16:05:31.855Z,19.70
2018-10-06T16:08:00.361Z,19.70
2018-10-06T16:10:28.881Z,19.70
2018-10-06T16:12:57.382Z,19.70
2018-10-06T16:15:25.953Z,19.60
2018-10-06T16:17:54.441Z,19.60
2018-10-06T16:20:22.958Z,19.50
2018-10-06T16:22:51.486Z,19.40
2018-10-06T16:25:20.012Z,19.30
2018-10-06T16:27:48.520Z,19.20
2018-10-06T16:30:17.045Z,19.10
2018-10-06T16:32:45.557Z,19.10
2018-10-06T16:35:14.236Z,19.00
2018-10-06T16:37:42.820Z,18.90
2018-10-06T16:40:11.349Z,18.80
2018-10-06T16:42:39.879Z,18.80
2018-10-06T16:45:08.408Z,18.70
2018-10-06T16:47:36.912Z,18.70
2018-10-06T16:50:05.437Z,18.70
2018-10-06T16:52:33.952Z,18.60
2018-10-06T16:55:02.482Z,18.60
2018-10-06T16:57:31.000Z,18.60
2018-10-06T16:59:59.595Z,18.50
2018-10-06T17:02:28.061Z,18.50
2018-10-06T17:04:56.629Z,18.50
2018-10-06T17:07:25.264Z,18.30
2018-10-06T17:09:53.783Z,18.30
2018-10-06T17:12:22.439Z,18.30
2018-10-06T17:14:51.112Z,18.20
2018-10-06T17:17:19.635Z,18.00
2018-10-06T17:19:48.158Z,17.90
2018-10-06T17:22:16.707Z,17.70
2018-10-06T17:24:45.192Z,17.70
2018-10-06T17:27:13.712Z,17.60
2018-10-06T17:29:42.243Z,17.60
2018-10-06T17:32:10.894Z,17.50
2018-10-06T17:34:39.388Z,17.40
2018-10-06T17:37:07.920Z,17.40
2018-10-06T17:39:36.465Z,17.40
2018-10-06T17:42:05.297Z,17.30
2018-10-06T17:44:33.855Z,17.20
2018-10-06T17:47:02.446Z,17.10
2018-10-06T17:49:30.941Z,17.00
2018-10-06T17:51:59.458Z,17.00
2018-10-06T17:54:27.957Z,16.90
2018-10-06T17:56:56.492Z,16.80
2018-10-06T17:59:25.086Z,16.70
2018-10-06T18:01:53.645Z,16.70
2018-10-06T18:04:22.148Z,16.60
2018-10-06T18:06:50.691Z,16.60
2018-10-06T18:09:19.196Z,16.40
2018-10-06T18:11:47.721Z,16.40
2018-10-06T18:14:16.226Z,16.40
2018-10-06T18:16:45.390Z,16.40
2018-10-06T18:19:13.974Z,16.40
2018-10-06T18:21:42.565Z,16.40
2018-10-06T18:24:11.066Z,16.30
2018-10-06T18:26:39.613Z,16.20
2018-10-06T18:29:08.183Z,16.10
2018-10-06T18:31:36.666Z,16.10
2018-10-06T18:34:05.169Z,16.10
2018-10-06T18:36:33.795Z,16.10
2018-10-06T18:39:02.346Z,16.10
2018-10-06T18:41:30.877Z,16.10
2018-10-06T18:43:59.388Z,16.00
2018-10-06T18:46:27.917Z,16.00
2018-10-06T18:48:56.414Z,15.90
2018-10-06T18:51:24.936Z,15.90
2018-10-06T18:53:53.425Z,15.90
2018-10-06T18:56:21.948Z,15.90
2018-10-06T18:58:50.454Z,15.80
2018-10-06T19:01:18.982Z,15.80
2018-10-06T19:03:47.657Z,15.80
2018-10-06T19:06:16.042Z,15.70
2018-10-06T19:08:44.643Z,15.80
2018-10-06T19:11:13.205Z,15.70
2018-10-06T19:13:41.706Z,15.60
2018-10-06T19:16:10.251Z,15.60
2018-10-06T19:18:38.797Z,15.50
2018-10-06T19:21:07.317Z,15.40
2018-10-06T19:23:35.869Z,15.40
2018-10-06T19:26:04.378Z,15.30
2018-10-06T19:28:32.917Z,15.30
2018-10-06T19:31:01.416Z,15.30
2018-10-06T19:33:29.924Z,15.20
2018-10-06T19:35:58.485Z,15.10
2018-10-06T19:38:27.049Z,15.00
2018-10-06T19:40:55.539Z,15.00
2018-10-06T19:43:24.068Z,15.00
2018-10-06T19:45:52.618Z,15.00
2018-10-06T19:48:21.110Z,14.90
2018-10-06T19:50:49.632Z,14.80
2018-10-06T19:53:18.162Z,14.80
2018-10-06T19:55:46.665Z,14.70
2018-10-06T19:58:15.190Z,14.60
2018-10-06T20:00:43.706Z,14.50
2018-10-06T20:03:12.239Z,14.50
2018-10-06T20:05:40.733Z,14.60
2018-10-06T20:08:09.282Z,14.50
2018-10-06T20:10:37.771Z,14.50
2018-10-06T20:13:06.529Z,14.50
2018-10-06T20:15:35.033Z,14.50
2018-10-06T20:18:03.549Z,14.50
2018-10-06T20:20:32.039Z,14.40
2018-10-06T20:23:00.770Z,14.40
2018-10-06T20:25:29.409Z,14.40
2018-10-06T20:27:57.967Z,14.40
2018-10-06T20:30:26.993Z,14.30
2018-10-06T20:32:55.552Z,14.20
2018-10-06T20:35:24.079Z,14.30
2018-10-06T20:37:52.621Z,14.30
2018-10-06T20:40:21.140Z,14.20
2018-10-06T20:42:49.694Z,14.20
2018-10-06T20:45:18.236Z,14.10
2018-10-06T20:47:46.796Z,14.10
2018-10-06T20:50:15.332Z,14.00
2018-10-06T20:52:43.936Z,13.90
2018-10-06T20:55:12.475Z,13.90
2018-10-06T20:57:41.034Z,13.90
2018-10-06T21:00:09.807Z,13.80
2018-10-06T21:02:38.377Z,13.80
2018-10-06T21:05:06.949Z,13.70
2018-10-06T21:07:35.520Z,13.70
2018-10-06T21:10:04.099Z,13.60
2018-10-06T21:12:32.613Z,13.50
2018-10-06T21:15:01.165Z,13.50
2018-10-06T21:17:30.601Z,13.50
2018-10-06T21:19:59.166Z,13.50
2018-10-06T21:22:27.689Z,13.50
2018-10-06T21:24:56.226Z,13.30
2018-10-06T21:27:24.727Z,13.30
2018-10-06T21:29:53.241Z,13.30
2018-10-06T21:32:21.742Z,13.20
2018-10-06T21:34:50.264Z,13.10
2018-10-06T21:37:18.773Z,13.10
2018-10-06T21:39:47.315Z,13.10
2018-10-06T21:42:15.821Z,13.10
2018-10-06T21:44:44.347Z,13.10
2018-10-06T21:47:12.841Z,13.10
2018-10-06T21:49:41.372Z,13.10
2018-10-06T21:52:09.874Z,13.10
2018-10-06T21:54:38.392Z,13.00
2018-10-06T21:57:06.968Z,13.00
2018-10-06T21:59:35.494Z,13.00
2018-10-06T22:02:04.033Z,12.90
2018-10-06T22:04:32.551Z,12.90
2018-10-06T22:07:01.045Z,12.90
2018-10-06T22:09:29.574Z,12.80
2018-10-06T22:11:58.081Z,12.70
2018-10-06T22:14:26.603Z,12.60
2018-10-06T22:16:55.118Z,12.70
2018-10-06T22:19:23.654Z,12.60
2018-10-06T22:21:52.225Z,12.70
2018-10-06T22:24:20.776Z,12.70
2018-10-06T22:26:49.349Z,12.70
2018-10-06T22:29:17.933Z,12.70
2018-10-06T22:31:46.449Z,12.70
2018-10-06T22:34:15.043Z,12.60
2018-10-06T22:36:43.587Z,12.50
2018-10-06T22:39:12.175Z,12.50
2018-10-06T22:41:41.046Z,12.40
2018-10-06T22:44:09.627Z,12.40
2018-10-06T22:46:38.181Z,12.30
2018-10-06T22:49:06.746Z,12.40
2018-10-06T22:51:35.309Z,12.30
2018-10-06T22:54:03.891Z,12.20
2018-10-06T22:56:32.462Z,12.20
2018-10-06T22:59:00.982Z,12.20
2018-10-06T23:01:29.589Z,12.20
2018-10-06T23:03:58.118Z,12.20
2018-10-06T23:06:26.694Z,12.30
2018-10-06T23:08:55.213Z,12.30
2018-10-06T23:11:23.769Z,12.30
2018-10-06T23:13:52.362Z,12.20
2018-10-06T23:16:20.928Z,12.10
2018-10-06T23:18:49.712Z,12.10
2018-10-06T23:21:18.321Z,12.10
2018-10-06T23:23:46.970Z,12.10
2018-10-06T23:26:15.536Z,12.10
2018-10-06T23:28:44.073Z,12.00
2018-10-06T23:31:12.625Z,12.00
2018-10-06T23:33:41.227Z,11.90
2018-10-06T23:36:09.754Z,11.90
2018-10-06T23:38:38.289Z,11.90
2018-10-06T23:41:06.873Z,11.80
2018-10-06T23:43:35.400Z,11.70
2018-10-06T23:46:03.985Z,11.70
2018-10-06T23:48:32.517Z,11.60
2018-10-06T23:51:01.081Z,11.60
2018-10-06T23:53:29.613Z,11.60
2018-10-06T23:55:58.204Z,11.60
2018-10-06T23:58:26.741Z,11.60
